TimeMST,TemperatureF,Dew PointF,Humidity,Sea Level PressureIn,VisibilityMPH,Wind Direction,Wind SpeedMPH,Gust SpeedMPH,PrecipitationIn,Events,Conditions,WindDirDegrees,DateUTC
12:53 AM,48.9,12.9,24,29.95,10.0,South,5.8,-,N/A,,Clear,190,2013-04-28 07:53:00
1:53 AM,46.0,17.1,31,29.94,10.0,South,8.1,-,N/A,,Clear,190,2013-04-28 08:53:00
2:53 AM,45.0,19.0,36,29.94,10.0,SSW,3.5,-,N/A,,Clear,210,2013-04-28 09:53:00
3:53 AM,45.0,10.9,25,29.94,10.0,South,10.4,-,N/A,,Clear,190,2013-04-28 10:53:00
4:53 AM,46.0,9.0,22,29.94,10.0,South,11.5,-,N/A,,Clear,190,2013-04-28 11:53:00
6:53 AM,53.1,10.9,19,29.94,10.0,West,4.6,-,N/A,,Clear,260,2013-04-28 13:53:00
7:53 AM,61.0,14.0,16,29.94,10.0,Calm,Calm,-,N/A,,Clear,0,2013-04-28 14:53:00
8:53 AM,66.9,12.0,12,29.95,10.0,Calm,Calm,-,N/A,,Clear,0,2013-04-28 15:53:00
9:53 AM,73.0,10.0,9,29.94,10.0,North,6.9,-,N/A,,Clear,350,2013-04-28 16:53:00
10:53 AM,75.9,10.0,8,29.93,10.0,NW,6.9,-,N/A,,Clear,320,2013-04-28 17:53:00
11:53 AM,77.0,6.1,7,29.91,10.0,Calm,Calm,-,N/A,,Clear,0,2013-04-28 18:53:00
12:53 PM,79.0,5.0,6,29.88,10.0,West,9.2,-,N/A,,Clear,270,2013-04-28 19:53:00
1:53 PM,81.0,6.1,6,29.86,10.0,North,6.9,-,N/A,,Clear,350,2013-04-28 20:53:00
2:53 PM,82.0,6.1,6,29.83,10.0,North,4.6,-,N/A,,Clear,350,2013-04-28 21:53:00
3:53 PM,82.0,8.1,6,29.81,10.0,West,8.1,-,N/A,,Clear,270,2013-04-28 22:53:00
4:53 PM,82.9,6.1,5,29.78,10.0,North,5.8,-,N/A,,Partly Cloudy,350,2013-04-28 23:53:00
5:53 PM,81.0,6.1,6,29.77,10.0,NE,3.5,-,N/A,,Clear,50,2013-04-29 00:53:00
6:53 PM,79.0,5.0,6,29.76,10.0,Calm,Calm,-,N/A,,Clear,0,2013-04-29 01:53:00
7:53 PM,72.0,12.9,10,29.76,10.0,WSW,9.2,-,N/A,,Clear,250,2013-04-29 02:53:00
8:53 PM,70.0,12.9,11,29.76,10.0,WSW,10.4,-,N/A,,Clear,250,2013-04-29 03:53:00
9:53 PM,69.1,12.9,11,29.76,10.0,WSW,5.8,-,N/A,,Clear,250,2013-04-29 04:53:00
10:53 PM,69.1,14.0,12,29.75,10.0,West,8.1,-,N/A,,Clear,280,2013-04-29 05:53:00
11:53 PM,62.1,16.0,17,29.78,10.0,Calm,Calm,-,N/A,,Clear,0,2013-04-29 06:53:00